Time;durP1;ratioP1;P1;durP2;ratioP2;P2;SDS_P1;SDS_P2;PMS_P1;PMS_P2;Temp;Humidity;BMP_temperature;BMP_pressure;BME280_temperature;BME280_humidity;BME280_pressure;Samples;Min_cycle;Max_cycle;Signal;HPM_P1;HPM_P2
2022/08/18 00:02:17;;;;;;;1.80;1.03;;;21.40;91.10;;;;;;5082483;28;20553;-83
2022/08/18 00:04:44;;;;;;;1.30;1.20;;;21.30;91.20;;;;;;5080838;28;20466;-81
2022/08/18 00:07:15;;;;;;;1.73;1.47;;;21.20;91.60;;;;;;5079972;28;20471;-82
2022/08/18 00:09:43;;;;;;;0.70;0.70;;;21.20;91.60;;;;;;5077862;28;20574;-82
2022/08/18 00:12:14;;;;;;;0.70;0.70;;;21.20;91.50;;;;;;5078157;28;20462;-84
2022/08/18 00:14:41;;;;;;;2.70;1.93;;;21.20;91.50;;;;;;5076327;28;20466;-83
2022/08/18 00:17:08;;;;;;;1.47;1.10;;;21.10;91.60;;;;;;5074974;28;20462;-83
2022/08/18 00:19:36;;;;;;;3.13;1.40;;;21.20;91.70;;;;;;5082842;28;20483;-83
2022/08/18 00:22:04;;;;;;;2.27;2.07;;;21.20;91.50;;;;;;5080857;28;20466;-82
2022/08/18 00:24:31;;;;;;;1.50;1.10;;;21.20;91.50;;;;;;5080290;28;20467;-83
2022/08/18 00:26:58;;;;;;;1.53;1.43;;;21.20;91.70;;;;;;5080343;28;20460;-82
2022/08/18 00:29:25;;;;;;;2.33;1.90;;;21.10;91.80;;;;;;5082772;28;20528;-83
2022/08/18 00:31:52;;;;;;;1.40;1.30;;;21.20;91.60;;;;;;5078365;28;20464;-82
2022/08/18 00:34:19;;;;;;;1.70;1.40;;;21.30;91.40;;;;;;5078619;28;20463;-84
2022/08/18 00:36:48;;;;;;;1.90;1.40;;;21.40;91.30;;;;;;5077981;28;20463;-82
2022/08/18 00:39:16;;;;;;;1.40;1.30;;;21.40;91.00;;;;;;5073625;28;20876;-83
2022/08/18 00:41:43;;;;;;;1.70;1.20;;;21.50;90.80;;;;;;5074826;28;20456;-84
2022/08/18 00:44:11;;;;;;;1.10;1.00;;;21.40;90.80;;;;;;5075819;28;20522;-85
2022/08/18 00:46:38;;;;;;;2.17;1.63;;;21.50;90.80;;;;;;5081391;28;20524;-83
2022/08/18 00:49:05;;;;;;;1.53;1.43;;;21.50;90.60;;;;;;5086127;28;20466;-82
2022/08/18 00:51:39;;;;;;;1.73;1.33;;;21.50;90.60;;;;;;5079402;28;20569;-83
2022/08/18 00:54:13;;;;;;;1.17;1.03;;;21.60;90.40;;;;;;5070347;28;20468;-84
2022/08/18 00:56:45;;;;;;;1.30;1.20;;;21.60;90.30;;;;;;5079673;28;20812;-83
2022/08/18 00:59:20;;;;;;;1.40;1.30;;;21.60;90.30;;;;;;5082462;28;20460;-83
2022/08/18 01:01:50;;;;;;;2.30;1.53;;;21.50;90.60;;;;;;5078960;28;20477;-84
2022/08/18 01:04:21;;;;;;;1.00;1.00;;;21.50;90.90;;;;;;5075608;28;20524;-85
2022/08/18 01:06:52;;;;;;;1.30;1.20;;;21.40;91.30;;;;;;5078460;28;20994;-83
2022/08/18 01:09:22;;;;;;;1.50;1.40;;;21.20;91.50;;;;;;5070939;28;20568;-82
2022/08/18 01:11:50;;;;;;;1.13;1.07;;;21.10;92.00;;;;;;5080153;28;20561;-84
2022/08/18 01:14:18;;;;;;;2.10;1.50;;;21.00;91.90;;;;;;5078877;28;20536;-82
2022/08/18 01:22:22;;;;;;;1.83;1.20;;;20.80;92.80;;;;;;5076645;28;20588;-82
2022/08/18 01:27:37;;;;;;;2.50;1.40;;;20.80;93.30;;;;;;5079871;28;20829;-84
2022/08/18 01:30:09;;;;;;;1.83;1.73;;;20.80;93.30;;;;;;5077281;28;20482;-84
2022/08/18 01:32:37;;;;;;;1.63;1.30;;;20.80;93.30;;;;;;5081311;28;20938;-83
2022/08/18 01:35:08;;;;;;;3.13;1.20;;;20.70;93.40;;;;;;5077593;28;20563;-82
2022/08/18 01:37:37;;;;;;;1.43;1.33;;;20.70;93.80;;;;;;5080736;28;21169;-82
2022/08/18 01:40:08;;;;;;;1.50;1.13;;;20.60;94.40;;;;;;5079304;28;20470;-84
2022/08/18 01:42:35;;;;;;;2.20;1.60;;;20.50;94.70;;;;;;5078242;28;20466;-82
2022/08/18 01:45:04;;;;;;;2.20;1.80;;;20.20;95.70;;;;;;5075647;28;20980;-83
2022/08/18 01:47:33;;;;;;;1.40;1.20;;;20.10;96.20;;;;;;5075017;28;20466;-83
2022/08/18 01:50:00;;;;;;;1.57;1.33;;;19.90;96.50;;;;;;5081051;28;20568;-82
2022/08/18 01:52:28;;;;;;;1.53;1.03;;;19.70;97.60;;;;;;5076500;28;20528;-83
2022/08/18 01:54:57;;;;;;;1.43;1.17;;;19.60;98.10;;;;;;5077744;28;20544;-82
2022/08/18 01:57:28;;;;;;;3.17;1.00;;;19.70;97.80;;;;;;5073159;28;21162;-82
2022/08/18 01:59:55;;;;;;;2.17;1.03;;;19.70;97.80;;;;;;5081178;28;20884;-82
2022/08/18 02:02:26;;;;;;;1.33;1.23;;;19.50;98.30;;;;;;5089035;28;20471;-82
2022/08/18 02:04:59;;;;;;;1.70;1.60;;;19.50;98.50;;;;;;5086385;28;20548;-82
2022/08/18 02:07:26;;;;;;;1.77;1.67;;;19.40;99.00;;;;;;5075807;28;21029;-82
2022/08/18 02:09:54;;;;;;;2.60;1.30;;;19.30;99.90;;;;;;5080950;28;20509;-82
2022/08/18 02:12:21;;;;;;;2.03;1.47;;;19.20;99.90;;;;;;5078607;28;20467;-83
2022/08/18 02:14:51;;;;;;;2.33;1.53;;;19.10;99.90;;;;;;5077226;28;21147;-82
2022/08/18 02:17:19;;;;;;;1.30;1.20;;;19.10;99.90;;;;;;5074398;28;21001;-83
2022/08/18 02:19:47;;;;;;;3.63;2.00;;;19.00;99.90;;;;;;5074513;28;20499;-82
2022/08/18 02:22:17;;;;;;;1.63;1.30;;;19.00;99.90;;;;;;5073694;28;20548;-81
2022/08/18 02:24:45;;;;;;;2.60;1.37;;;19.00;99.90;;;;;;5069558;28;20466;-82
2022/08/18 02:27:14;;;;;;;1.60;1.50;;;19.00;99.90;;;;;;5077247;28;20469;-83
2022/08/18 02:29:41;;;;;;;1.37;1.10;;;18.90;99.90;;;;;;5075384;28;20833;-82
2022/08/18 02:32:09;;;;;;;1.43;1.30;;;18.80;99.90;;;;;;5078467;28;20501;-83
2022/08/18 02:34:37;;;;;;;2.10;1.60;;;18.80;99.90;;;;;;5077026;28;20473;-82
2022/08/18 02:37:04;;;;;;;2.00;1.80;;;18.70;99.90;;;;;;5075078;28;20470;-82
2022/08/18 02:39:34;;;;;;;1.33;1.23;;;18.70;99.90;;;;;;5075789;28;20465;-83
2022/08/18 02:42:01;;;;;;;2.93;2.17;;;18.70;99.90;;;;;;5079868;28;20514;-84
2022/08/18 02:44:27;;;;;;;2.30;1.60;;;18.80;99.90;;;;;;5080281;28;20489;-82
2022/08/18 02:46:55;;;;;;;3.07;2.80;;;18.90;99.90;;;;;;5072562;28;20463;-83
2022/08/18 02:49:24;;;;;;;3.20;1.77;;;18.90;99.90;;;;;;5083919;28;20526;-82
2022/08/18 02:51:52;;;;;;;2.67;1.83;;;18.90;99.90;;;;;;5074059;28;20474;-82
2022/08/18 02:54:19;;;;;;;2.47;2.27;;;19.00;99.90;;;;;;5076458;28;20459;-82
2022/08/18 02:56:46;;;;;;;2.87;2.03;;;18.90;99.90;;;;;;5077170;28;20471;-82
2022/08/18 02:59:15;;;;;;;2.10;1.90;;;18.90;99.90;;;;;;5079204;28;20549;-84
2022/08/18 03:01:44;;;;;;;6.17;2.37;;;18.90;99.90;;;;;;5073384;28;20473;-82
2022/08/18 03:04:14;;;;;;;2.33;1.83;;;19.10;99.90;;;;;;5074506;28;20471;-82
2022/08/18 03:06:43;;;;;;;2.50;2.30;;;19.10;99.90;;;;;;5077981;28;20475;-83
2022/08/18 03:09:11;;;;;;;1.83;1.73;;;19.10;99.90;;;;;;5077122;28;20455;-83
2022/08/18 03:11:39;;;;;;;1.77;1.60;;;19.00;99.90;;;;;;5076950;28;21095;-83
2022/08/18 03:14:06;;;;;;;2.13;1.70;;;19.00;99.90;;;;;;5070193;28;20554;-82
2022/08/18 03:16:35;;;;;;;2.60;2.00;;;18.90;99.90;;;;;;5079748;28;20471;-84
2022/08/18 03:19:02;;;;;;;3.63;2.43;;;18.80;99.90;;;;;;5075062;28;20466;-84
2022/08/18 03:21:31;;;;;;;2.63;2.00;;;18.80;99.90;;;;;;5072915;28;20469;-82
2022/08/18 03:24:00;;;;;;;3.80;2.33;;;18.80;99.90;;;;;;5074236;28;20467;-84
2022/08/18 03:26:28;;;;;;;2.83;1.83;;;19.00;99.90;;;;;;5078187;28;20471;-83
2022/08/18 03:28:55;;;;;;;2.37;2.17;;;19.10;99.90;;;;;;5074627;28;20479;-84
2022/08/18 03:31:26;;;;;;;2.00;1.90;;;19.10;99.90;;;;;;5071674;28;20563;-84
2022/08/18 03:33:55;;;;;;;2.00;1.90;;;19.20;99.90;;;;;;5075792;28;20462;-82
2022/08/18 03:36:25;;;;;;;2.60;2.40;;;19.30;99.90;;;;;;5072339;28;20498;-84
2022/08/18 03:38:53;;;;;;;3.20;2.90;;;19.60;99.90;;;;;;5069665;28;20493;-82
2022/08/18 03:41:24;;;;;;;2.93;2.73;;;19.70;99.90;;;;;;5070993;28;20491;-82
2022/08/18 03:43:52;;;;;;;4.90;2.97;;;19.70;99.90;;;;;;5072828;28;20552;-84
2022/08/18 03:46:20;;;;;;;8.93;2.70;;;19.80;99.90;;;;;;5071294;28;20566;-82
2022/08/18 03:48:48;;;;;;;1.73;1.50;;;19.80;99.90;;;;;;5073304;28;20478;-82
2022/08/18 03:51:17;;;;;;;2.60;2.23;;;19.90;99.90;;;;;;5080967;28;20489;-82
2022/08/18 03:53:48;;;;;;;4.87;2.47;;;19.90;99.90;;;;;;5079769;28;20470;-83
2022/08/18 03:56:18;;;;;;;3.67;2.00;;;20.00;99.90;;;;;;5076270;28;20562;-81
2022/08/18 03:58:48;;;;;;;2.60;2.17;;;20.00;99.90;;;;;;5076580;28;20458;-83
2022/08/18 04:01:18;;;;;;;2.10;2.00;;;20.00;99.90;;;;;;5075479;28;20916;-82
2022/08/18 04:03:47;;;;;;;2.23;2.03;;;19.90;99.90;;;;;;5074276;28;20846;-84
2022/08/18 04:06:16;;;;;;;3.23;2.30;;;19.90;99.90;;;;;;5084936;28;20495;-82
2022/08/18 04:08:45;;;;;;;2.40;2.20;;;20.00;99.90;;;;;;5078566;28;20492;-82
2022/08/18 04:11:13;;;;;;;4.40;1.37;;;20.00;99.90;;;;;;5081124;28;20492;-84
2022/08/18 04:13:40;;;;;;;3.83;1.90;;;19.90;99.90;;;;;;5083240;28;20555;-82
2022/08/18 04:16:09;;;;;;;3.50;2.37;;;20.00;99.90;;;;;;5079036;28;21136;-82
2022/08/18 04:18:37;;;;;;;2.40;2.20;;;20.00;99.90;;;;;;5084792;28;20464;-82
2022/08/18 04:21:06;;;;;;;2.87;1.90;;;20.00;99.90;;;;;;5079418;28;20596;-84
2022/08/18 04:23:34;;;;;;;2.87;2.00;;;20.00;99.90;;;;;;5079617;28;20546;-82
2022/08/18 04:26:02;;;;;;;2.50;1.70;;;20.00;99.90;;;;;;5077762;28;20470;-82
2022/08/18 04:28:30;;;;;;;1.40;1.30;;;20.00;99.90;;;;;;5087317;28;20449;-83
2022/08/18 04:30:58;;;;;;;3.63;1.80;;;20.10;99.90;;;;;;5083030;28;20486;-82
2022/08/18 04:33:27;;;;;;;3.10;2.63;;;20.10;99.90;;;;;;5072617;28;20459;-82
2022/08/18 04:35:55;;;;;;;1.87;1.77;;;20.10;99.90;;;;;;5083118;28;20847;-83
2022/08/18 04:38:23;;;;;;;2.13;1.50;;;20.10;99.90;;;;;;5078294;28;20491;-82
2022/08/18 04:40:50;;;;;;;3.93;2.17;;;20.10;99.90;;;;;;5076818;28;20473;-85
2022/08/18 04:43:17;;;;;;;1.50;1.40;;;20.10;99.90;;;;;;5075172;28;21126;-84
2022/08/18 04:45:46;;;;;;;2.67;1.70;;;20.00;99.90;;;;;;5075847;28;20459;-82
2022/08/18 04:48:15;;;;;;;1.63;1.50;;;20.00;99.90;;;;;;5077876;28;20476;-82
2022/08/18 04:50:44;;;;;;;2.43;1.77;;;20.00;99.90;;;;;;5075848;28;20494;-83
2022/08/18 04:55:56;;;;;;;2.07;1.87;;;20.00;99.90;;;;;;5078636;28;20445;-83
2022/08/18 04:58:24;;;;;;;1.67;1.57;;;20.00;99.90;;;;;;5077776;28;20463;-83
2022/08/18 05:00:58;;;;;;;3.37;2.23;;;20.00;99.90;;;;;;5072897;28;20482;-82
2022/08/18 05:03:25;;;;;;;2.20;2.00;;;20.00;99.90;;;;;;5082975;28;20559;-83
2022/08/18 05:05:54;;;;;;;1.63;1.50;;;20.00;99.90;;;;;;5078754;28;20456;-82
2022/08/18 05:08:22;;;;;;;1.60;1.30;;;20.00;99.90;;;;;;5072961;28;21017;-82
2022/08/18 05:10:56;;;;;;;1.53;1.43;;;20.10;99.90;;;;;;5077187;28;21284;-82
2022/08/18 05:13:30;;;;;;;2.30;1.93;;;20.10;99.90;;;;;;5077017;28;20866;-86
2022/08/18 05:16:03;;;;;;;2.17;1.73;;;20.20;99.90;;;;;;5080376;28;20470;-84
2022/08/18 05:18:31;;;;;;;2.00;1.63;;;20.20;99.90;;;;;;5073819;28;20464;-84
2022/08/18 05:21:01;;;;;;;1.73;1.63;;;20.20;99.90;;;;;;5074958;28;20470;-81
2022/08/18 05:23:30;;;;;;;3.13;1.67;;;20.30;99.90;;;;;;5074680;28;20462;-83
2022/08/18 05:25:59;;;;;;;1.83;1.73;;;20.40;99.90;;;;;;5074181;28;20473;-83
2022/08/18 05:28:26;;;;;;;2.00;1.33;;;20.50;99.90;;;;;;5067158;28;20453;-84
2022/08/18 05:30:53;;;;;;;3.33;1.70;;;20.60;99.90;;;;;;5072231;28;20482;-84
2022/08/18 05:33:20;;;;;;;1.87;1.77;;;20.70;99.90;;;;;;5073222;28;20470;-83
2022/08/18 05:35:50;;;;;;;2.50;2.17;;;20.70;99.90;;;;;;5074112;28;20552;-83
2022/08/18 05:38:29;;;;;;;2.00;1.27;;;20.80;99.90;;;;;;5077058;28;21029;-83
2022/08/18 05:41:08;;;;;;;5.73;2.13;;;20.80;99.90;;;;;;5073478;28;20537;-84
2022/08/18 05:43:37;;;;;;;3.00;2.40;;;20.90;99.90;;;;;;5076818;28;20604;-85
2022/08/18 05:46:06;;;;;;;2.13;1.40;;;20.90;99.90;;;;;;5077420;28;20453;-83
2022/08/18 05:48:34;;;;;;;3.43;1.90;;;21.00;99.90;;;;;;5076948;28;20458;-84
2022/08/18 05:51:10;;;;;;;3.23;2.70;;;21.10;99.90;;;;;;5072256;28;20493;-84
2022/08/18 05:59:16;;;;;;;1.63;1.53;;;21.30;99.90;;;;;;5068081;28;20921;-81
2022/08/18 06:01:50;;;;;;;2.10;1.67;;;21.50;99.90;;;;;;5076253;28;20533;-81
2022/08/18 06:04:25;;;;;;;3.07;2.60;;;21.60;99.90;;;;;;5073023;28;20475;-82
2022/08/18 06:06:54;;;;;;;1.33;1.23;;;21.60;99.90;;;;;;5075909;28;20462;-81
2022/08/18 06:09:28;;;;;;;2.83;2.20;;;21.70;99.90;;;;;;5073410;28;20489;-82
2022/08/18 06:12:03;;;;;;;2.47;2.00;;;21.90;99.90;;;;;;5073039;28;20489;-81
2022/08/18 06:14:31;;;;;;;3.27;2.00;;;22.00;99.90;;;;;;5060097;28;20459;-83
2022/08/18 06:17:06;;;;;;;1.60;1.50;;;22.10;99.90;;;;;;5071330;28;20467;-81
2022/08/18 06:19:45;;;;;;;1.40;1.30;;;22.30;99.90;;;;;;5063752;28;20532;-81
2022/08/18 06:22:22;;;;;;;1.70;1.60;;;22.30;99.30;;;;;;5066027;28;20963;-81
2022/08/18 06:25:00;;;;;;;1.60;1.50;;;22.30;98.90;;;;;;5070881;28;20467;-80
2022/08/18 06:27:34;;;;;;;4.03;2.10;;;22.50;98.60;;;;;;5065276;28;20458;-82
2022/08/18 06:30:07;;;;;;;1.67;1.57;;;22.60;98.60;;;;;;5064482;28;20464;-81
2022/08/18 06:32:51;;;;;;;2.20;2.00;;;22.60;98.00;;;;;;5068278;28;20959;-81
2022/08/18 06:35:33;;;;;;;3.07;1.83;;;22.60;98.00;;;;;;5067389;28;20494;-81
2022/08/18 06:41:01;;;;;;;2.33;1.90;;;22.90;97.60;;;;;;5075039;28;20470;-83
2022/08/18 06:43:33;;;;;;;2.53;1.60;;;22.90;96.90;;;;;;5069675;28;20582;-80
2022/08/18 06:46:01;;;;;;;2.70;2.50;;;23.10;97.10;;;;;;5066023;28;20520;-82
2022/08/18 06:48:37;;;;;;;1.50;1.40;;;23.20;96.60;;;;;;5064835;28;20460;-82
2022/08/18 06:51:07;;;;;;;2.07;1.70;;;23.40;96.40;;;;;;5066055;28;20720;-82
2022/08/18 06:53:54;;;;;;;1.97;1.83;;;23.50;95.80;;;;;;5068901;28;21102;-81
2022/08/18 06:56:27;;;;;;;2.50;2.30;;;23.60;95.80;;;;;;5066338;28;20471;-81
2022/08/18 06:58:54;;;;;;;2.03;1.93;;;23.80;95.30;;;;;;5070795;28;20469;-82
2022/08/18 07:01:23;;;;;;;2.77;2.40;;;24.10;95.30;;;;;;5067836;28;20525;-82
2022/08/18 07:03:55;;;;;;;2.40;1.90;;;24.10;94.40;;;;;;5070228;28;20495;-81
2022/08/18 07:06:30;;;;;;;2.30;2.20;;;24.00;94.60;;;;;;5066417;28;20463;-81
2022/08/18 07:09:18;;;;;;;2.40;2.20;;;24.00;94.60;;;;;;5065907;28;20465;-80
2022/08/18 07:12:05;;;;;;;1.93;1.80;;;24.10;94.50;;;;;;5060924;28;20498;-82
2022/08/18 07:14:41;;;;;;;2.50;2.30;;;24.20;94.40;;;;;;5073124;28;20865;-81
2022/08/18 07:17:11;;;;;;;3.03;2.30;;;24.20;94.20;;;;;;5072772;28;20918;-81
2022/08/18 07:19:38;;;;;;;1.50;1.40;;;24.00;94.00;;;;;;5075239;28;20532;-81
2022/08/18 07:22:08;;;;;;;3.07;2.10;;;24.00;94.10;;;;;;5081074;28;20546;-81
2022/08/18 07:24:40;;;;;;;1.63;1.43;;;23.90;94.10;;;;;;5068023;28;20915;-81
2022/08/18 07:27:11;;;;;;;2.60;2.40;;;24.00;94.70;;;;;;5073417;28;20849;-82
2022/08/18 07:29:40;;;;;;;2.47;2.27;;;24.10;94.80;;;;;;5076936;28;20505;-80
2022/08/18 07:32:14;;;;;;;2.07;1.87;;;24.60;94.50;;;;;;5082698;28;20486;-82
2022/08/18 07:34:45;;;;;;;2.03;1.73;;;24.80;93.60;;;;;;5078714;28;20459;-82
2022/08/18 07:37:18;;;;;;;2.60;2.23;;;25.00;93.20;;;;;;5080129;28;20470;-81
2022/08/18 07:39:51;;;;;;;5.87;2.30;;;25.20;93.10;;;;;;5074747;28;20455;-81
2022/08/18 07:42:28;;;;;;;2.97;2.73;;;25.10;92.10;;;;;;5079793;28;20471;-83
2022/08/18 07:45:01;;;;;;;2.60;2.40;;;24.90;92.00;;;;;;5078870;28;20532;-81
2022/08/18 07:47:36;;;;;;;2.77;2.57;;;24.70;92.50;;;;;;5083611;28;21087;-80
2022/08/18 07:50:03;;;;;;;2.17;2.00;;;24.60;93.00;;;;;;5077361;28;20476;-81
2022/08/18 07:52:35;;;;;;;2.87;1.60;;;24.80;93.10;;;;;;5084105;28;20491;-80
2022/08/18 07:55:09;;;;;;;2.90;1.80;;;24.80;92.40;;;;;;5074472;28;20980;-80
2022/08/18 07:57:46;;;;;;;2.53;2.33;;;24.80;92.30;;;;;;5076864;28;20472;-81
2022/08/18 08:00:20;;;;;;;2.63;2.43;;;24.80;92.70;;;;;;5075305;28;20578;-83
2022/08/18 08:02:58;;;;;;;3.23;2.67;;;24.90;93.30;;;;;;5074116;28;20536;-81
2022/08/18 08:05:41;;;;;;;2.80;2.60;;;24.80;92.10;;;;;;5071444;28;21375;-81
2022/08/18 08:08:18;;;;;;;1.73;1.63;;;25.00;91.90;;;;;;5078656;28;20459;-82
2022/08/18 08:10:53;;;;;;;2.60;2.37;;;25.40;91.30;;;;;;5071654;28;20596;-81
2022/08/18 08:13:31;;;;;;;2.07;1.97;;;25.30;91.10;;;;;;5074483;28;20486;-80
2022/08/18 08:16:04;;;;;;;2.27;2.03;;;25.20;91.70;;;;;;5078633;28;20555;-80
2022/08/18 08:18:41;;;;;;;2.07;1.90;;;25.30;90.10;;;;;;5082098;28;20463;-81
2022/08/18 08:21:14;;;;;;;1.87;1.77;;;25.40;90.70;;;;;;5077428;28;20457;-81
2022/08/18 08:23:50;;;;;;;2.20;2.00;;;25.40;90.80;;;;;;5076222;28;20454;-82
2022/08/18 08:26:32;;;;;;;2.90;2.60;;;25.40;91.30;;;;;;5067065;28;20463;-81
2022/08/18 08:29:17;;;;;;;1.87;1.77;;;25.40;90.70;;;;;;5068988;28;20463;-81
2022/08/18 08:31:50;;;;;;;2.40;2.23;;;25.40;91.10;;;;;;5069979;28;20498;-82
2022/08/18 08:34:24;;;;;;;1.90;1.80;;;25.60;91.10;;;;;;5069376;28;20594;-81
2022/08/18 08:36:59;;;;;;;2.60;2.03;;;26.10;89.50;;;;;;5082085;28;20431;-81
2022/08/18 08:39:39;;;;;;;1.90;1.80;;;26.60;87.80;;;;;;5072527;28;20451;-81
2022/08/18 08:42:11;;;;;;;4.70;4.30;;;26.70;89.20;;;;;;5082932;28;20454;-83
2022/08/18 08:44:46;;;;;;;3.03;2.33;;;27.10;87.90;;;;;;5074529;28;20494;-82
2022/08/18 08:47:19;;;;;;;3.63;2.40;;;27.00;86.70;;;;;;5084154;28;20459;-81
2022/08/18 08:49:50;;;;;;;3.50;3.20;;;27.10;87.50;;;;;;5094168;28;20453;-81
2022/08/18 08:52:21;;;;;;;3.40;3.03;;;27.00;84.70;;;;;;5077840;28;21085;-83
2022/08/18 08:54:52;;;;;;;2.20;2.00;;;26.80;86.50;;;;;;5069458;28;20877;-82
2022/08/18 08:57:25;;;;;;;2.40;2.20;;;27.00;84.70;;;;;;5068046;28;20580;-82
2022/08/18 08:59:56;;;;;;;5.30;3.13;;;27.20;85.00;;;;;;5067423;28;20495;-81
2022/08/18 09:02:49;;;;;;;2.30;2.20;;;27.30;82.50;;;;;;5066795;28;20558;-81
2022/08/18 09:05:21;;;;;;;2.27;2.17;;;27.10;82.40;;;;;;5066744;28;20954;-81
2022/08/18 09:08:18;;;;;;;2.83;2.63;;;27.10;84.00;;;;;;5070726;28;20542;-81
2022/08/18 09:11:08;;;;;;;3.90;2.57;;;27.40;83.50;;;;;;5074506;28;20459;-83
2022/08/18 09:13:53;;;;;;;2.03;1.90;;;27.40;80.00;;;;;;5038506;28;20487;-82
2022/08/18 09:16:39;;;;;;;2.70;2.50;;;27.70;84.10;;;;;;5076795;28;20922;-83
2022/08/18 09:19:32;;;;;;;3.00;1.87;;;27.80;80.60;;;;;;5079142;28;21097;-84
2022/08/18 09:22:03;;;;;;;2.00;1.90;;;27.70;80.90;;;;;;5066952;28;20464;-83
2022/08/18 09:24:38;;;;;;;1.80;1.70;;;27.40;80.10;;;;;;5068205;28;20474;-83
2022/08/18 09:27:15;;;;;;;2.53;2.43;;;27.40;78.40;;;;;;5066008;28;20483;-83
2022/08/18 09:29:51;;;;;;;1.93;1.83;;;27.10;78.30;;;;;;5074983;28;20459;-82
2022/08/18 09:32:40;;;;;;;3.90;1.80;;;26.80;79.40;;;;;;5065032;28;20539;-82
2022/08/18 09:35:23;;;;;;;1.70;1.60;;;27.10;78.90;;;;;;5065256;28;20486;-80
2022/08/18 09:43:35;;;;;;;1.90;1.80;;;27.40;79.80;;;;;;5032633;28;21066;-83
2022/08/18 09:46:04;;;;;;;2.40;1.80;;;27.40;76.30;;;;;;5074629;28;20455;-83
2022/08/18 09:48:35;;;;;;;1.77;1.67;;;27.70;75.30;;;;;;5063154;28;21224;-84
2022/08/18 09:51:34;;;;;;;2.10;1.37;;;27.70;75.50;;;;;;5076652;28;20447;-82
2022/08/18 09:54:20;;;;;;;3.63;3.43;;;27.70;79.20;;;;;;5069507;28;20553;-84
2022/08/18 09:57:16;;;;;;;2.20;2.00;;;28.10;79.30;;;;;;5064816;28;21018;-82
2022/08/18 10:00:22;;;;;;;2.53;2.40;;;28.40;75.80;;;;;;5063534;28;20535;-82
2022/08/18 10:03:12;;;;;;;3.47;3.23;;;28.20;75.30;;;;;;5070060;28;21127;-82
2022/08/18 10:06:06;;;;;;;2.07;1.97;;;27.90;75.60;;;;;;5065566;28;21170;-82
2022/08/18 10:09:06;;;;;;;2.43;2.13;;;28.20;78.00;;;;;;5077366;28;20513;-84
2022/08/18 10:11:46;;;;;;;2.10;2.00;;;28.20;76.40;;;;;;5068367;28;20462;-82
2022/08/18 10:14:32;;;;;;;1.97;1.87;;;28.30;76.50;;;;;;5071439;28;21129;-80
2022/08/18 10:17:11;;;;;;;2.07;1.87;;;28.50;75.90;;;;;;5068269;28;20513;-80
2022/08/18 10:19:48;;;;;;;2.90;2.60;;;28.70;77.30;;;;;;5069869;28;20455;-82
2022/08/18 10:22:38;;;;;;;2.90;2.70;;;28.20;74.90;;;;;;5067854;28;20951;-83
2022/08/18 10:25:08;;;;;;;1.93;1.83;;;28.40;75.00;;;;;;5066397;28;20814;-83
2022/08/18 10:27:48;;;;;;;2.10;1.97;;;28.40;72.40;;;;;;5066522;28;21087;-80
2022/08/18 10:31:00;;;;;;;1.83;1.73;;;28.60;72.60;;;;;;5062201;28;21049;-81
2022/08/18 10:34:03;;;;;;;1.90;1.80;;;28.90;72.90;;;;;;5064062;28;20552;-81
2022/08/18 10:36:40;;;;;;;6.77;2.90;;;29.10;70.80;;;;;;5068946;28;20455;-82
2022/08/18 10:39:12;;;;;;;1.93;1.83;;;29.00;69.60;;;;;;5064582;28;20462;-82
2022/08/18 10:41:52;;;;;;;7.60;2.50;;;29.00;70.90;;;;;;5065975;28;20464;-81
2022/08/18 10:44:22;;;;;;;2.60;2.40;;;28.80;68.60;;;;;;5068493;28;20966;-81
2022/08/18 10:46:51;;;;;;;6.90;2.70;;;29.30;68.90;;;;;;5074020;28;20744;-81
2022/08/18 10:49:24;;;;;;;2.60;2.50;;;29.40;68.60;;;;;;5075567;28;20552;-80
2022/08/18 10:52:13;;;;;;;3.00;2.00;;;29.10;66.90;;;;;;5064325;28;20896;-81
2022/08/18 10:55:00;;;;;;;2.67;2.37;;;29.30;68.40;;;;;;5066073;28;20612;-82
2022/08/18 10:57:36;;;;;;;1.80;1.70;;;29.50;67.30;;;;;;5068877;28;20468;-81
2022/08/18 11:00:11;;;;;;;3.50;2.10;;;29.00;68.50;;;;;;5066636;28;20458;-81
2022/08/18 11:02:58;;;;;;;4.60;2.00;;;29.00;68.90;;;;;;5066530;28;20528;-81
2022/08/18 11:05:27;;;;;;;2.30;2.10;;;29.00;68.10;;;;;;5069316;28;20463;-81
2022/08/18 11:07:59;;;;;;;2.80;2.37;;;29.20;69.80;;;;;;5067731;28;20513;-81
2022/08/18 11:10:39;;;;;;;2.10;1.97;;;29.30;66.40;;;;;;5069247;28;20645;-81
2022/08/18 11:13:13;;;;;;;2.50;1.90;;;29.50;65.30;;;;;;5063105;28;21275;-82
2022/08/18 11:15:55;;;;;;;1.97;1.77;;;29.80;68.20;;;;;;5067425;28;20469;-82
2022/08/18 11:18:34;;;;;;;2.73;2.63;;;30.00;63.60;;;;;;5069101;28;20463;-81
2022/08/18 11:21:24;;;;;;;1.70;1.53;;;30.20;63.80;;;;;;5065195;28;20456;-81
2022/08/18 11:24:06;;;;;;;2.10;1.90;;;29.80;67.20;;;;;;5063887;28;20464;-81
2022/08/18 11:26:38;;;;;;;3.57;2.50;;;30.00;64.90;;;;;;5064036;28;20992;-82
2022/08/18 11:29:18;;;;;;;1.97;1.87;;;30.10;66.90;;;;;;5067877;28;20474;-83
2022/08/18 11:31:46;;;;;;;2.10;1.90;;;30.20;65.60;;;;;;5066470;28;20467;-83
2022/08/18 11:34:17;;;;;;;2.53;2.33;;;30.30;63.20;;;;;;5062772;28;20591;-84
2022/08/18 11:36:44;;;;;;;2.27;2.00;;;30.40;62.00;;;;;;5064184;28;20494;-82
2022/08/18 11:39:11;;;;;;;2.50;2.30;;;30.70;64.10;;;;;;5074714;28;20466;-81
2022/08/18 11:41:47;;;;;;;1.67;1.57;;;31.00;64.70;;;;;;5070770;28;20908;-82
2022/08/18 11:44:19;;;;;;;2.13;2.03;;;30.80;61.30;;;;;;5063924;28;20539;-84
2022/08/18 11:46:46;;;;;;;2.87;2.57;;;30.60;61.90;;;;;;5075791;28;20470;-82
2022/08/18 11:49:17;;;;;;;2.57;2.37;;;30.50;61.50;;;;;;5077597;28;20523;-81
2022/08/18 11:52:15;;;;;;;1.90;1.70;;;30.50;60.00;;;;;;5074333;28;20541;-89
2022/08/18 11:54:47;;;;;;;2.30;2.13;;;30.70;60.60;;;;;;5075701;28;20443;-82
2022/08/18 11:57:44;;;;;;;1.73;1.63;;;30.50;61.90;;;;;;5079761;28;20448;-84
2022/08/18 12:00:56;;;;;;;2.50;2.30;;;30.60;59.60;;;;;;5066863;28;20979;-82
2022/08/18 12:03:30;;;;;;;2.20;2.10;;;31.00;61.80;;;;;;5061537;28;20466;-81
2022/08/18 12:06:00;;;;;;;2.10;1.40;;;31.00;60.30;;;;;;5065506;28;20460;-84
2022/08/18 12:08:36;;;;;;;2.27;2.07;;;31.40;59.20;;;;;;5071173;28;20597;-81
2022/08/18 12:11:15;;;;;;;3.53;1.80;;;31.00;59.40;;;;;;5072852;28;20466;-81
2022/08/18 12:13:48;;;;;;;2.40;1.60;;;30.70;59.40;;;;;;5073286;28;21201;-86
2022/08/18 12:16:31;;;;;;;3.73;2.33;;;30.80;61.30;;;;;;5080535;28;20447;-81
2022/08/18 12:18:59;;;;;;;2.40;2.30;;;31.20;64.00;;;;;;5065678;28;20447;-80
2022/08/18 12:21:26;;;;;;;2.93;1.93;;;31.40;60.20;;;;;;5077158;28;21147;-80
2022/08/18 12:23:53;;;;;;;3.10;2.90;;;31.20;59.60;;;;;;5077432;28;20463;-81
2022/08/18 12:26:20;;;;;;;2.20;2.10;;;31.00;60.10;;;;;;5073960;28;20468;-83
2022/08/18 12:28:48;;;;;;;2.83;2.60;;;30.90;58.90;;;;;;5078709;28;20452;-80
2022/08/18 12:31:15;;;;;;;3.27;2.80;;;30.40;60.30;;;;;;5077009;28;20468;-80
2022/08/18 12:33:42;;;;;;;2.60;2.37;;;30.10;60.90;;;;;;5084282;28;20490;-83
2022/08/18 12:36:09;;;;;;;5.90;2.27;;;30.30;61.40;;;;;;5084597;28;20950;-81
2022/08/18 12:38:36;;;;;;;2.70;2.43;;;30.20;61.00;;;;;;5073928;28;20459;-82
2022/08/18 12:41:05;;;;;;;3.53;2.30;;;30.30;61.70;;;;;;5081449;28;20452;-81
2022/08/18 12:43:32;;;;;;;5.70;2.60;;;30.30;60.50;;;;;;5069002;28;20591;-82
2022/08/18 12:46:01;;;;;;;2.83;2.73;;;30.40;62.40;;;;;;5067475;28;20517;-82
2022/08/18 12:48:30;;;;;;;2.63;2.30;;;30.40;61.20;;;;;;5074326;28;20798;-81
2022/08/18 12:50:57;;;;;;;1.97;1.70;;;30.70;62.60;;;;;;5076840;28;20466;-83
2022/08/18 12:53:25;;;;;;;2.47;2.10;;;31.10;60.70;;;;;;5076936;28;20557;-82
2022/08/18 12:55:56;;;;;;;2.27;2.17;;;31.20;59.00;;;;;;5084627;28;20531;-87
2022/08/18 12:58:24;;;;;;;2.23;2.03;;;31.10;57.90;;;;;;5070453;28;20475;-81
2022/08/18 13:00:51;;;;;;;3.37;2.30;;;31.40;58.00;;;;;;5071073;28;20474;-83
2022/08/18 13:03:20;;;;;;;2.10;1.93;;;31.60;58.00;;;;;;5072856;28;21032;-83
2022/08/18 13:05:47;;;;;;;2.30;2.10;;;31.80;57.00;;;;;;5073540;28;20486;-82
2022/08/18 13:08:20;;;;;;;1.83;1.73;;;31.70;58.40;;;;;;5064281;28;20472;-82
2022/08/18 13:10:47;;;;;;;2.37;2.17;;;32.10;59.00;;;;;;5073530;28;20463;-81
2022/08/18 13:13:16;;;;;;;2.43;2.13;;;32.10;56.30;;;;;;5068755;28;20485;-82
2022/08/18 13:15:44;;;;;;;2.33;2.17;;;31.60;58.40;;;;;;5071823;28;20496;-81
2022/08/18 13:18:12;;;;;;;3.43;2.43;;;31.20;57.90;;;;;;5076492;28;20460;-81
2022/08/18 13:20:41;;;;;;;1.70;1.57;;;31.90;58.70;;;;;;5067798;28;20914;-81
2022/08/18 13:23:08;;;;;;;3.00;2.80;;;32.20;58.80;;;;;;5070301;28;20541;-81
2022/08/18 13:25:37;;;;;;;2.20;2.10;;;32.00;57.00;;;;;;5066020;28;20454;-82
2022/08/18 13:28:04;;;;;;;5.20;2.27;;;31.90;56.80;;;;;;5078862;28;20586;-82
2022/08/18 13:30:31;;;;;;;2.20;2.00;;;32.30;56.00;;;;;;5079094;28;20995;-82
2022/08/18 13:32:59;;;;;;;3.10;2.90;;;32.30;56.90;;;;;;5079706;28;20495;-83
2022/08/18 13:35:29;;;;;;;3.70;1.93;;;32.30;57.70;;;;;;5068768;28;20470;-81
2022/08/18 13:37:58;;;;;;;2.40;2.20;;;32.70;57.20;;;;;;5074702;28;20516;-81
2022/08/18 13:40:25;;;;;;;3.53;2.00;;;32.90;57.40;;;;;;5077875;28;20462;-83
2022/08/18 13:42:52;;;;;;;4.40;1.83;;;32.80;58.10;;;;;;5082880;28;20953;-84